Orangeburg Municipal Airport
KOGB : rendu visible

Aérodrome :











RETROUVEZ-NOUS SUR...

 
LOGIN :

S'inscrire | Disclaimer

   EN    FR    IT 

 









Légende :    VFR   VFR Marginal   IFR   IFR Intensif   IFR Très Intensif
Visi : 
Plafond : 
>= 8 km
>= 3000ft
5 à 8 km
1000 à 3000 ft
1500m à 5 km
500 à 1000 ft
800 à 1500m
200 à 500 ft
< 800m
< 200 ft
Symboles :   Orages  Brouillard  Fortes neiges  Fortes précipitations  Vent > 20 kt







- Altitude de l'aérodrome : 195 ft


KOGB - Orangeburg Municipal

DERNIER METAR :
  • 241953Z AUTO 26010KT 10SM CLR 30/12 A2991 RMK AO2 SLP126 T03000117

METARs EXPIRÉS :
  • 241853Z AUTO 24015G18KT 10SM CLR 29/11 A2993 RMK AO2 SLP133 T02940111
  • 241753Z AUTO 25013KT 10SM CLR 29/10 A2995 RMK AO2 SLP140 T02940100 10300 20156 58017

TAF KOGB
Valide du 24 à 18h jusqu'au 25 à 18h UTC


241738Z 2418/2518 26010G18KT P6SM SCT250
FM250000 22004KT P6SM SCT250
FM251500 24010KT P6SM BKN250
FIR KZJX / Amérique du Nord



MET'MAP, la Météo Aéronautique d'un coup d'oeil ! - Copyright ORBIFLY Décembre 2007 - Disclaimer

ORBIFLY MET'MAP TEAM :

Programmation & Développement : Alexandra Zaïnal
Conception & Développement : Baudouin d'Aumeries
Co-Programmation & Développement : Marc-Olivier Méhu
Soutien technique & logistique : Manuel Goepfert

Contact : metmap@orbifly.com




SOURCES & CREDITS :

   NOAA       Earth
Advisory